sensor_id;sensor_type;location;lat;lon;timestamp;pressure;altitude;pressure_sealevel;temperature;humidity
37858;BME280;23695;55.868;37.472;2024-03-23T00:54:44;98433.94;;;4.87;63.83
37858;BME280;23695;55.868;37.472;2024-03-23T00:57:10;98434.09;;;4.91;64.09
37858;BME280;23695;55.868;37.472;2024-03-23T00:59:36;98431.56;;;4.86;64.61
37858;BME280;23695;55.868;37.472;2024-03-23T01:02:01;98431.09;;;4.83;64.75
37858;BME280;23695;55.868;37.472;2024-03-23T01:04:27;98421.50;;;4.91;64.41
37858;BME280;23695;55.868;37.472;2024-03-23T01:06:53;98421.81;;;4.90;64.50
37858;BME280;23695;55.868;37.472;2024-03-23T01:09:19;98414.25;;;4.92;64.79
37858;BME280;23695;55.868;37.472;2024-03-23T01:11:44;98407.97;;;4.88;64.98
37858;BME280;23695;55.868;37.472;2024-03-23T01:14:10;98402.97;;;4.95;64.44
37858;BME280;23695;55.868;37.472;2024-03-23T01:16:36;98398.97;;;4.83;65.44
37858;BME280;23695;55.868;37.472;2024-03-23T01:19:01;98406.38;;;4.78;65.70
37858;BME280;23695;55.868;37.472;2024-03-23T01:21:27;98393.00;;;4.78;65.58
37858;BME280;23695;55.868;37.472;2024-03-23T01:23:53;98392.50;;;4.76;66.00
37858;BME280;23695;55.868;37.472;2024-03-23T01:26:18;98388.91;;;4.80;65.49
37858;BME280;23695;55.868;37.472;2024-03-23T01:28:44;98383.69;;;4.75;66.12
37858;BME280;23695;55.868;37.472;2024-03-23T01:31:10;98377.09;;;4.73;65.94
37858;BME280;23695;55.868;37.472;2024-03-23T01:33:35;98374.75;;;4.71;66.47
37858;BME280;23695;55.868;37.472;2024-03-23T01:36:01;98366.88;;;4.75;66.28
37858;BME280;23695;55.868;37.472;2024-03-23T01:38:27;98365.75;;;4.67;66.34
37858;BME280;23695;55.868;37.472;2024-03-23T01:40:59;98360.22;;;4.55;67.51
37858;BME280;23695;55.868;37.472;2024-03-23T01:43:24;98351.75;;;4.62;66.92
37858;BME280;23695;55.868;37.472;2024-03-23T01:45:50;98355.66;;;4.55;67.19
37858;BME280;23695;55.868;37.472;2024-03-23T01:48:16;98352.38;;;4.59;67.27
37858;BME280;23695;55.868;37.472;2024-03-23T01:50:42;98345.94;;;4.60;67.13
37858;BME280;23695;55.868;37.472;2024-03-23T01:53:09;98345.94;;;4.60;67.07
37858;BME280;23695;55.868;37.472;2024-03-23T01:55:34;98340.88;;;4.58;67.25
37858;BME280;23695;55.868;37.472;2024-03-23T01:58:00;98330.19;;;4.67;67.00
37858;BME280;23695;55.868;37.472;2024-03-23T02:00:26;98330.38;;;4.62;67.61
37858;BME280;23695;55.868;37.472;2024-03-23T02:02:51;98316.22;;;4.61;67.84
37858;BME280;23695;55.868;37.472;2024-03-23T02:05:17;98314.94;;;4.67;67.47
37858;BME280;23695;55.868;37.472;2024-03-23T02:07:43;98306.63;;;4.60;68.08
37858;BME280;23695;55.868;37.472;2024-03-23T02:10:10;98302.84;;;4.70;67.12
37858;BME280;23695;55.868;37.472;2024-03-23T02:12:36;98310.38;;;4.68;67.58
37858;BME280;23695;55.868;37.472;2024-03-23T02:15:03;98293.41;;;4.64;68.04
37858;BME280;23695;55.868;37.472;2024-03-23T02:17:33;98289.78;;;4.68;67.49
37858;BME280;23695;55.868;37.472;2024-03-23T02:20:00;98280.34;;;4.71;67.75
37858;BME280;23695;55.868;37.472;2024-03-23T02:22:37;98274.81;;;4.59;68.36
37858;BME280;23695;55.868;37.472;2024-03-23T02:25:04;98275.78;;;4.63;68.46
37858;BME280;23695;55.868;37.472;2024-03-23T02:27:30;98268.22;;;4.65;68.21
37858;BME280;23695;55.868;37.472;2024-03-23T02:29:58;98267.75;;;4.63;68.60
37858;BME280;23695;55.868;37.472;2024-03-23T02:32:23;98273.44;;;4.61;68.43
37858;BME280;23695;55.868;37.472;2024-03-23T02:34:49;98262.41;;;4.63;68.55
37858;BME280;23695;55.868;37.472;2024-03-23T02:37:15;98255.81;;;4.60;68.78
37858;BME280;23695;55.868;37.472;2024-03-23T02:39:41;98258.78;;;4.67;68.56
37858;BME280;23695;55.868;37.472;2024-03-23T02:42:10;98257.38;;;4.61;68.55
37858;BME280;23695;55.868;37.472;2024-03-23T02:44:36;98258.16;;;4.62;68.75
37858;BME280;23695;55.868;37.472;2024-03-23T02:47:01;98241.66;;;4.68;68.71
37858;BME280;23695;55.868;37.472;2024-03-23T02:49:27;98236.44;;;4.63;69.21
37858;BME280;23695;55.868;37.472;2024-03-23T02:51:53;98236.44;;;4.63;68.77
37858;BME280;23695;55.868;37.472;2024-03-23T02:54:18;98240.69;;;4.64;68.83
37858;BME280;23695;55.868;37.472;2024-03-23T02:56:44;98236.91;;;4.65;69.29
37858;BME280;23695;55.868;37.472;2024-03-23T02:59:10;98227.47;;;4.68;69.14
37858;BME280;23695;55.868;37.472;2024-03-23T03:01:36;98214.41;;;4.66;69.48
37858;BME280;23695;55.868;37.472;2024-03-23T03:04:01;98218.66;;;4.59;70.12
37858;BME280;23695;55.868;37.472;2024-03-23T03:06:27;98209.72;;;4.63;70.00
37858;BME280;23695;55.868;37.472;2024-03-23T03:08:53;98218.66;;;4.67;69.26
37858;BME280;23695;55.868;37.472;2024-03-23T03:11:19;98201.06;;;4.66;69.43
37858;BME280;23695;55.868;37.472;2024-03-23T03:13:45;98202.94;;;4.66;69.90
37858;BME280;23695;55.868;37.472;2024-03-23T03:16:11;98193.97;;;4.70;69.86
37858;BME280;23695;55.868;37.472;2024-03-23T03:18:37;98208.28;;;4.66;70.37
37858;BME280;23695;55.868;37.472;2024-03-23T03:21:03;98196.50;;;4.58;70.64
37858;BME280;23695;55.868;37.472;2024-03-23T03:23:29;98197.59;;;4.74;70.29
37858;BME280;23695;55.868;37.472;2024-03-23T03:25:55;98201.34;;;4.82;70.12
37858;BME280;23695;55.868;37.472;2024-03-23T03:28:21;98184.66;;;4.85;69.87
37858;BME280;23695;55.868;37.472;2024-03-23T03:30:46;98181.06;;;4.81;70.17
37858;BME280;23695;55.868;37.472;2024-03-23T03:33:12;98174.28;;;4.83;69.83
37858;BME280;23695;55.868;37.472;2024-03-23T03:35:38;98167.38;;;4.82;70.28
37858;BME280;23695;55.868;37.472;2024-03-23T03:38:04;98157.28;;;4.88;69.88
37858;BME280;23695;55.868;37.472;2024-03-23T03:40:30;98162.31;;;4.98;69.40
37858;BME280;23695;55.868;37.472;2024-03-23T03:42:55;98169.53;;;4.98;70.09
37858;BME280;23695;55.868;37.472;2024-03-23T03:45:21;98152.88;;;4.92;69.96
37858;BME280;23695;55.868;37.472;2024-03-23T03:47:47;98160.41;;;4.99;70.09
37858;BME280;23695;55.868;37.472;2024-03-23T03:50:13;98145.28;;;4.94;70.15
37858;BME280;23695;55.868;37.472;2024-03-23T03:52:38;98146.25;;;4.98;70.54
37858;BME280;23695;55.868;37.472;2024-03-23T03:55:12;98142.16;;;4.92;70.50
37858;BME280;23695;55.868;37.472;2024-03-23T03:57:38;98141.84;;;4.94;70.59
37858;BME280;23695;55.868;37.472;2024-03-23T04:00:04;98135.22;;;5.00;70.29
37858;BME280;23695;55.868;37.472;2024-03-23T04:02:30;98128.94;;;4.96;70.87
37858;BME280;23695;55.868;37.472;2024-03-23T04:04:56;98118.84;;;5.01;70.31
37858;BME280;23695;55.868;37.472;2024-03-23T04:07:22;98128.13;;;5.04;70.31
37858;BME280;23695;55.868;37.472;2024-03-23T04:09:48;98123.91;;;4.94;71.42
37858;BME280;23695;55.868;37.472;2024-03-23T04:12:14;98126.69;;;5.06;70.81
37858;BME280;23695;55.868;37.472;2024-03-23T04:14:39;98122.59;;;5.09;70.35
37858;BME280;23695;55.868;37.472;2024-03-23T04:17:06;98126.50;;;5.11;70.39
37858;BME280;23695;55.868;37.472;2024-03-23T04:19:32;98122.75;;;5.13;70.72
37858;BME280;23695;55.868;37.472;2024-03-23T04:21:57;98125.88;;;5.15;70.46
37858;BME280;23695;55.868;37.472;2024-03-23T04:24:23;98116.59;;;5.12;70.88
37858;BME280;23695;55.868;37.472;2024-03-23T04:26:49;98109.22;;;5.09;71.27
37858;BME280;23695;55.868;37.472;2024-03-23T04:29:14;98095.06;;;5.08;70.98
37858;BME280;23695;55.868;37.472;2024-03-23T04:31:40;98095.22;;;5.03;71.77
37858;BME280;23695;55.868;37.472;2024-03-23T04:34:06;98092.50;;;5.12;71.25
37858;BME280;23695;55.868;37.472;2024-03-23T04:36:31;98083.69;;;5.11;71.47
37858;BME280;23695;55.868;37.472;2024-03-23T04:38:59;98071.59;;;5.14;71.24
37858;BME280;23695;55.868;37.472;2024-03-23T04:41:25;98087.63;;;5.14;71.56
37858;BME280;23695;55.868;37.472;2024-03-23T04:43:52;98079.28;;;5.16;71.30
37858;BME280;23695;55.868;37.472;2024-03-23T04:46:18;98076.94;;;5.14;71.47
37858;BME280;23695;55.868;37.472;2024-03-23T04:48:43;98072.00;;;5.25;70.74
37858;BME280;23695;55.868;37.472;2024-03-23T04:51:09;98067.28;;;5.22;70.97
37858;BME280;23695;55.868;37.472;2024-03-23T04:53:37;98075.31;;;5.22;70.96
37858;BME280;23695;55.868;37.472;2024-03-23T04:56:06;98065.56;;;5.17;71.14
37858;BME280;23695;55.868;37.472;2024-03-23T04:58:32;98057.03;;;5.24;70.98
37858;BME280;23695;55.868;37.472;2024-03-23T05:00:58;98067.78;;;5.15;71.33
37858;BME280;23695;55.868;37.472;2024-03-23T05:03:23;98061.28;;;5.25;70.93
37858;BME280;23695;55.868;37.472;2024-03-23T05:05:49;98063.69;;;5.18;71.43
37858;BME280;23695;55.868;37.472;2024-03-23T05:08:16;98054.50;;;5.27;71.22
37858;BME280;23695;55.868;37.472;2024-03-23T05:10:42;98051.31;;;5.34;70.67
37858;BME280;23695;55.868;37.472;2024-03-23T05:13:09;98044.06;;;5.34;70.84
37858;BME280;23695;55.868;37.472;2024-03-23T05:15:34;98052.88;;;5.35;71.19
37858;BME280;23695;55.868;37.472;2024-03-23T05:18:01;98039.50;;;5.35;70.64
37858;BME280;23695;55.868;37.472;2024-03-23T05:20:27;98035.25;;;5.34;71.03
37858;BME280;23695;55.868;37.472;2024-03-23T05:22:54;98035.66;;;5.45;70.67
37858;BME280;23695;55.868;37.472;2024-03-23T05:25:20;98021.69;;;5.39;70.70
37858;BME280;23695;55.868;37.472;2024-03-23T05:27:45;98026.97;;;5.48;70.76
37858;BME280;23695;55.868;37.472;2024-03-23T05:30:11;98024.38;;;5.39;70.94
37858;BME280;23695;55.868;37.472;2024-03-23T05:32:37;98024.81;;;5.41;70.62
37858;BME280;23695;55.868;37.472;2024-03-23T05:35:03;98026.66;;;5.49;70.44
37858;BME280;23695;55.868;37.472;2024-03-23T05:37:29;98022.69;;;5.26;71.79
37858;BME280;23695;55.868;37.472;2024-03-23T05:39:54;98023.72;;;5.42;71.13
37858;BME280;23695;55.868;37.472;2024-03-23T05:42:20;98026.38;;;5.42;70.68
37858;BME280;23695;55.868;37.472;2024-03-23T05:44:46;98019.97;;;5.55;70.63
37858;BME280;23695;55.868;37.472;2024-03-23T05:47:12;98023.44;;;5.56;70.42
37858;BME280;23695;55.868;37.472;2024-03-23T05:49:38;98018.63;;;5.49;70.35
37858;BME280;23695;55.868;37.472;2024-03-23T05:52:04;98022.25;;;5.24;70.87
37858;BME280;23695;55.868;37.472;2024-03-23T05:54:30;98014.34;;;5.27;71.32
37858;BME280;23695;55.868;37.472;2024-03-23T05:56:56;98014.69;;;5.47;70.68
37858;BME280;23695;55.868;37.472;2024-03-23T05:59:24;97997.00;;;5.54;70.69
37858;BME280;23695;55.868;37.472;2024-03-23T06:01:50;98009.03;;;5.48;70.65
37858;BME280;23695;55.868;37.472;2024-03-23T06:04:19;98010.19;;;5.59;70.26
37858;BME280;23695;55.868;37.472;2024-03-23T06:06:45;98000.28;;;5.60;70.82
37858;BME280;23695;55.868;37.472;2024-03-23T06:09:11;97998.56;;;5.55;71.10
37858;BME280;23695;55.868;37.472;2024-03-23T06:11:37;98004.44;;;5.90;70.27
37858;BME280;23695;55.868;37.472;2024-03-23T06:14:03;97999.00;;;5.99;70.05
37858;BME280;23695;55.868;37.472;2024-03-23T06:16:29;98000.50;;;5.88;69.99
37858;BME280;23695;55.868;37.472;2024-03-23T06:18:55;97989.56;;;6.02;69.56
37858;BME280;23695;55.868;37.472;2024-03-23T06:21:20;97998.75;;;6.13;69.02
37858;BME280;23695;55.868;37.472;2024-03-23T06:23:46;97991.16;;;5.73;70.27
37858;BME280;23695;55.868;37.472;2024-03-23T06:26:12;97988.38;;;5.69;70.05
37858;BME280;23695;55.868;37.472;2024-03-23T06:28:38;97987.31;;;5.83;69.71
37858;BME280;23695;55.868;37.472;2024-03-23T06:31:11;97988.09;;;5.21;70.75
37858;BME280;23695;55.868;37.472;2024-03-23T06:33:37;97980.66;;;5.68;70.16
37858;BME280;23695;55.868;37.472;2024-03-23T06:36:06;97978.19;;;5.84;69.68
37858;BME280;23695;55.868;37.472;2024-03-23T06:38:34;97979.63;;;6.02;69.30
37858;BME280;23695;55.868;37.472;2024-03-23T06:41:02;97981.38;;;5.77;69.06
37858;BME280;23695;55.868;37.472;2024-03-23T06:43:28;97977.53;;;5.24;71.23
37858;BME280;23695;55.868;37.472;2024-03-23T06:45:54;97969.13;;;5.88;69.69
37858;BME280;23695;55.868;37.472;2024-03-23T06:48:20;97971.56;;;6.02;69.42
37858;BME280;23695;55.868;37.472;2024-03-23T06:50:47;97974.78;;;5.75;69.92
37858;BME280;23695;55.868;37.472;2024-03-23T06:53:13;97966.00;;;6.07;68.98
37858;BME280;23695;55.868;37.472;2024-03-23T06:55:39;97969.19;;;6.01;69.13
37858;BME280;23695;55.868;37.472;2024-03-23T06:58:05;97963.66;;;6.06;68.75
37858;BME280;23695;55.868;37.472;2024-03-23T07:00:31;97967.00;;;6.03;68.53
37858;BME280;23695;55.868;37.472;2024-03-23T07:03:00;97954.88;;;6.30;68.75
37858;BME280;23695;55.868;37.472;2024-03-23T07:05:26;97958.13;;;6.35;68.51
37858;BME280;23695;55.868;37.472;2024-03-23T07:07:52;97959.03;;;6.39;67.94
37858;BME280;23695;55.868;37.472;2024-03-23T07:10:17;97964.06;;;6.41;67.98
37858;BME280;23695;55.868;37.472;2024-03-23T07:12:43;97960.84;;;6.47;67.88
37858;BME280;23695;55.868;37.472;2024-03-23T07:15:09;97962.50;;;6.52;68.02
37858;BME280;23695;55.868;37.472;2024-03-23T07:17:35;97951.00;;;5.73;69.42
37858;BME280;23695;55.868;37.472;2024-03-23T07:20:02;97948.41;;;6.43;68.20
37858;BME280;23695;55.868;37.472;2024-03-23T07:22:28;97951.78;;;6.52;67.76
37858;BME280;23695;55.868;37.472;2024-03-23T07:24:56;97940.25;;;6.51;68.32
37858;BME280;23695;55.868;37.472;2024-03-23T07:27:22;97942.50;;;6.37;68.79
37858;BME280;23695;55.868;37.472;2024-03-23T07:29:48;97940.34;;;6.18;69.48
37858;BME280;23695;55.868;37.472;2024-03-23T07:32:13;97941.41;;;6.05;69.07
37858;BME280;23695;55.868;37.472;2024-03-23T07:34:39;97940.97;;;6.03;70.46
37858;BME280;23695;55.868;37.472;2024-03-23T07:37:05;97929.72;;;5.89;70.29
37858;BME280;23695;55.868;37.472;2024-03-23T07:39:30;97932.78;;;5.46;71.58
37858;BME280;23695;55.868;37.472;2024-03-23T07:41:56;97926.19;;;6.30;70.03
37858;BME280;23695;55.868;37.472;2024-03-23T07:44:24;97918.25;;;6.58;68.86
37858;BME280;23695;55.868;37.472;2024-03-23T07:46:50;97926.41;;;5.59;70.79
37858;BME280;23695;55.868;37.472;2024-03-23T07:49:16;97928.31;;;6.37;69.49
37858;BME280;23695;55.868;37.472;2024-03-23T07:51:42;97929.13;;;6.04;70.64
37858;BME280;23695;55.868;37.472;2024-03-23T07:54:07;97921.69;;;6.22;70.62
37858;BME280;23695;55.868;37.472;2024-03-23T07:56:33;97926.50;;;6.29;70.46
37858;BME280;23695;55.868;37.472;2024-03-23T07:58:59;97926.19;;;6.30;69.61
37858;BME280;23695;55.868;37.472;2024-03-23T08:01:24;97924.16;;;6.51;70.27
37858;BME280;23695;55.868;37.472;2024-03-23T08:03:50;97915.78;;;6.77;69.61
37858;BME280;23695;55.868;37.472;2024-03-23T08:06:20;97902.59;;;6.60;70.30
37858;BME280;23695;55.868;37.472;2024-03-23T08:08:47;97911.16;;;6.17;70.66
37858;BME280;23695;55.868;37.472;2024-03-23T08:11:13;97906.19;;;6.28;71.70
37858;BME280;23695;55.868;37.472;2024-03-23T08:13:40;97908.00;;;5.90;72.03
37858;BME280;23695;55.868;37.472;2024-03-23T08:16:06;97908.03;;;6.03;72.87
37858;BME280;23695;55.868;37.472;2024-03-23T08:18:32;97910.03;;;6.06;71.88
37858;BME280;23695;55.868;37.472;2024-03-23T08:21:03;97904.00;;;6.09;72.66
37858;BME280;23695;55.868;37.472;2024-03-23T08:23:31;97910.63;;;6.23;71.58
37858;BME280;23695;55.868;37.472;2024-03-23T08:25:58;97904.03;;;5.76;72.75
37858;BME280;23695;55.868;37.472;2024-03-23T08:28:24;97909.41;;;6.21;72.35
37858;BME280;23695;55.868;37.472;2024-03-23T08:30:50;97903.34;;;6.97;71.11
37858;BME280;23695;55.868;37.472;2024-03-23T08:33:16;97891.28;;;7.44;69.75
37858;BME280;23695;55.868;37.472;2024-03-23T08:35:42;97890.56;;;7.47;69.22
37858;BME280;23695;55.868;37.472;2024-03-23T08:38:07;97897.50;;;7.48;67.01
37858;BME280;23695;55.868;37.472;2024-03-23T08:40:33;97900.78;;;7.69;66.87
37858;BME280;23695;55.868;37.472;2024-03-23T08:42:59;97894.75;;;6.92;68.79
37858;BME280;23695;55.868;37.472;2024-03-23T08:45:25;97895.91;;;6.42;70.59
37858;BME280;23695;55.868;37.472;2024-03-23T08:47:51;97898.69;;;6.58;70.27
37858;BME280;23695;55.868;37.472;2024-03-23T08:50:17;97895.84;;;7.03;69.14
37858;BME280;23695;55.868;37.472;2024-03-23T08:52:42;97892.28;;;6.99;69.61
37858;BME280;23695;55.868;37.472;2024-03-23T08:55:08;97884.78;;;7.04;69.41
37858;BME280;23695;55.868;37.472;2024-03-23T08:57:34;97882.34;;;6.87;69.16
37858;BME280;23695;55.868;37.472;2024-03-23T09:00:00;97877.66;;;6.84;69.59
37858;BME280;23695;55.868;37.472;2024-03-23T09:02:25;97872.19;;;6.80;70.48
37858;BME280;23695;55.868;37.472;2024-03-23T09:04:51;97874.03;;;7.04;69.65
37858;BME280;23695;55.868;37.472;2024-03-23T09:07:17;97880.16;;;7.17;69.37
37858;BME280;23695;55.868;37.472;2024-03-23T09:09:42;97878.69;;;7.20;68.47
37858;BME280;23695;55.868;37.472;2024-03-23T09:12:08;97876.13;;;7.51;68.31
37858;BME280;23695;55.868;37.472;2024-03-23T09:14:34;97866.34;;;7.59;67.41
37858;BME280;23695;55.868;37.472;2024-03-23T09:17:00;97875.97;;;7.60;67.17
37858;BME280;23695;55.868;37.472;2024-03-23T09:19:29;97871.97;;;7.54;68.21
37858;BME280;23695;55.868;37.472;2024-03-23T09:21:55;97871.34;;;7.45;68.83
37858;BME280;23695;55.868;37.472;2024-03-23T09:24:21;97883.84;;;7.53;67.05
37858;BME280;23695;55.868;37.472;2024-03-23T09:26:47;97863.66;;;7.59;67.61
37858;BME280;23695;55.868;37.472;2024-03-23T09:29:13;97856.56;;;7.66;67.88
37858;BME280;23695;55.868;37.472;2024-03-23T09:31:39;97856.19;;;7.24;68.18
37858;BME280;23695;55.868;37.472;2024-03-23T09:34:05;97865.38;;;8.27;66.33
37858;BME280;23695;55.868;37.472;2024-03-23T09:36:31;97871.88;;;8.10;66.41
37858;BME280;23695;55.868;37.472;2024-03-23T09:38:57;97872.44;;;7.72;67.54
37858;BME280;23695;55.868;37.472;2024-03-23T09:41:22;97872.81;;;7.86;66.33
37858;BME280;23695;55.868;37.472;2024-03-23T09:43:48;97861.09;;;7.34;67.85
37858;BME280;23695;55.868;37.472;2024-03-23T09:46:14;97870.03;;;7.82;66.25
37858;BME280;23695;55.868;37.472;2024-03-23T09:48:41;97871.25;;;7.69;66.93
37858;BME280;23695;55.868;37.472;2024-03-23T09:51:07;97878.66;;;7.60;67.14
37858;BME280;23695;55.868;37.472;2024-03-23T09:53:33;97874.19;;;7.80;66.79
37858;BME280;23695;55.868;37.472;2024-03-23T09:55:59;97869.88;;;7.91;66.07
37858;BME280;23695;55.868;37.472;2024-03-23T09:58:24;97869.53;;;8.08;65.89
37858;BME280;23695;55.868;37.472;2024-03-23T10:00:50;97878.91;;;7.27;67.57
37858;BME280;23695;55.868;37.472;2024-03-23T10:03:16;97884.13;;;8.07;65.97
37858;BME280;23695;55.868;37.472;2024-03-23T10:05:41;97876.53;;;7.81;66.43
37858;BME280;23695;55.868;37.472;2024-03-23T10:10:43;97881.44;;;8.07;66.13
37858;BME280;23695;55.868;37.472;2024-03-23T10:13:10;97867.38;;;7.26;67.62
37858;BME280;23695;55.868;37.472;2024-03-23T10:15:36;97871.19;;;7.25;67.48
37858;BME280;23695;55.868;37.472;2024-03-23T10:18:18;97878.19;;;7.42;67.38
37858;BME280;23695;55.868;37.472;2024-03-23T10:21:10;97876.84;;;6.96;69.04
37858;BME280;23695;55.868;37.472;2024-03-23T10:23:37;97873.91;;;7.41;67.29
37858;BME280;23695;55.868;37.472;2024-03-23T10:26:16;97869.88;;;7.47;67.61
37858;BME280;23695;55.868;37.472;2024-03-23T10:28:56;97869.78;;;7.16;68.86
37858;BME280;23695;55.868;37.472;2024-03-23T10:31:22;97862.66;;;6.95;69.59
37858;BME280;23695;55.868;37.472;2024-03-23T10:33:49;97875.78;;;7.53;67.96
37858;BME280;23695;55.868;37.472;2024-03-23T10:36:15;97872.00;;;7.42;67.85
37858;BME280;23695;55.868;37.472;2024-03-23T10:38:47;97872.84;;;7.30;68.45
37858;BME280;23695;55.868;37.472;2024-03-23T10:41:15;97883.44;;;7.38;67.55
37858;BME280;23695;55.868;37.472;2024-03-23T10:43:42;97882.00;;;6.89;69.23
37858;BME280;23695;55.868;37.472;2024-03-23T10:46:08;97883.00;;;7.36;68.22
37858;BME280;23695;55.868;37.472;2024-03-23T10:48:34;97871.50;;;7.36;68.20
37858;BME280;23695;55.868;37.472;2024-03-23T10:51:00;97872.69;;;7.38;68.48
37858;BME280;23695;55.868;37.472;2024-03-23T10:53:27;97868.22;;;7.43;68.46
37858;BME280;23695;55.868;37.472;2024-03-23T10:55:54;97865.91;;;7.29;68.75
37858;BME280;23695;55.868;37.472;2024-03-23T10:58:24;97854.53;;;7.20;70.28
37858;BME280;23695;55.868;37.472;2024-03-23T11:00:52;97861.53;;;6.96;71.84
37858;BME280;23695;55.868;37.472;2024-03-23T11:03:32;97855.38;;;7.08;72.51
37858;BME280;23695;55.868;37.472;2024-03-23T11:05:59;97856.00;;;7.45;70.83
37858;BME280;23695;55.868;37.472;2024-03-23T11:08:41;97852.81;;;6.99;72.48
37858;BME280;23695;55.868;37.472;2024-03-23T11:11:19;97857.19;;;7.60;70.78
37858;BME280;23695;55.868;37.472;2024-03-23T11:13:48;97857.06;;;7.56;70.52
37858;BME280;23695;55.868;37.472;2024-03-23T11:18:50;97848.91;;;7.97;68.67
37858;BME280;23695;55.868;37.472;2024-03-23T11:21:54;97846.59;;;7.67;69.23
37858;BME280;23695;55.868;37.472;2024-03-23T11:24:21;97840.34;;;7.19;70.89
37858;BME280;23695;55.868;37.472;2024-03-23T11:26:47;97842.81;;;7.84;69.59
37858;BME280;23695;55.868;37.472;2024-03-23T11:29:15;97843.25;;;8.02;68.65
37858;BME280;23695;55.868;37.472;2024-03-23T11:31:47;97847.94;;;7.89;68.91
37858;BME280;23695;55.868;37.472;2024-03-23T11:34:15;97845.44;;;7.96;68.56
37858;BME280;23695;55.868;37.472;2024-03-23T11:36:42;97849.69;;;8.13;68.40
37858;BME280;23695;55.868;37.472;2024-03-23T11:39:17;97852.09;;;8.18;68.24
37858;BME280;23695;55.868;37.472;2024-03-23T11:41:49;97838.22;;;8.32;67.72
37858;BME280;23695;55.868;37.472;2024-03-23T11:44:17;97841.28;;;8.14;68.22
37858;BME280;23695;55.868;37.472;2024-03-23T11:46:43;97836.56;;;8.27;67.61
37858;BME280;23695;55.868;37.472;2024-03-23T11:49:24;97830.00;;;8.24;68.21
37858;BME280;23695;55.868;37.472;2024-03-23T11:51:51;97831.56;;;8.41;67.63
37858;BME280;23695;55.868;37.472;2024-03-23T11:54:21;97828.94;;;8.45;67.34
37858;BME280;23695;55.868;37.472;2024-03-23T11:56:59;97831.53;;;7.94;69.56
37858;BME280;23695;55.868;37.472;2024-03-23T11:59:39;97829.97;;;7.93;68.96
37858;BME280;23695;55.868;37.472;2024-03-23T12:02:12;97831.38;;;7.87;69.71
37858;BME280;23695;55.868;37.472;2024-03-23T12:04:38;97825.75;;;8.23;68.76
37858;BME280;23695;55.868;37.472;2024-03-23T12:07:15;97823.56;;;8.29;68.19
37858;BME280;23695;55.868;37.472;2024-03-23T12:09:41;97822.16;;;8.04;69.13
37858;BME280;23695;55.868;37.472;2024-03-23T12:12:16;97821.31;;;8.00;69.68
37858;BME280;23695;55.868;37.472;2024-03-23T12:14:46;97820.50;;;7.52;71.87
37858;BME280;23695;55.868;37.472;2024-03-23T12:17:26;97814.97;;;7.76;71.37
37858;BME280;23695;55.868;37.472;2024-03-23T12:19:52;97815.47;;;7.22;73.11
37858;BME280;23695;55.868;37.472;2024-03-23T12:22:20;97814.28;;;7.63;71.86
37858;BME280;23695;55.868;37.472;2024-03-23T12:24:47;97818.19;;;7.82;71.19
37858;BME280;23695;55.868;37.472;2024-03-23T12:27:13;97811.69;;;8.14;70.36
37858;BME280;23695;55.868;37.472;2024-03-23T12:29:39;97812.84;;;8.13;70.45
37858;BME280;23695;55.868;37.472;2024-03-23T12:32:05;97807.69;;;8.24;69.44
37858;BME280;23695;55.868;37.472;2024-03-23T12:34:30;97812.66;;;7.90;70.70
37858;BME280;23695;55.868;37.472;2024-03-23T12:36:56;97813.00;;;7.89;70.39
37858;BME280;23695;55.868;37.472;2024-03-23T12:39:22;97808.91;;;8.11;69.84
37858;BME280;23695;55.868;37.472;2024-03-23T12:41:48;97803.16;;;8.28;69.45
37858;BME280;23695;55.868;37.472;2024-03-23T12:44:14;97816.72;;;7.69;70.72
37858;BME280;23695;55.868;37.472;2024-03-23T12:46:41;97816.03;;;7.87;70.63
37858;BME280;23695;55.868;37.472;2024-03-23T12:49:07;97815.34;;;8.06;70.02
37858;BME280;23695;55.868;37.472;2024-03-23T12:51:33;97812.91;;;8.17;69.68
37858;BME280;23695;55.868;37.472;2024-03-23T12:53:58;97815.16;;;7.39;72.09
37858;BME280;23695;55.868;37.472;2024-03-23T12:56:24;97811.84;;;7.74;71.26
37858;BME280;23695;55.868;37.472;2024-03-23T12:58:50;97812.81;;;7.98;70.32
37858;BME280;23695;55.868;37.472;2024-03-23T13:01:19;97809.53;;;7.88;70.57
37858;BME280;23695;55.868;37.472;2024-03-23T13:03:49;97814.28;;;8.11;69.95
37858;BME280;23695;55.868;37.472;2024-03-23T13:06:16;97822.16;;;8.19;69.77
37858;BME280;23695;55.868;37.472;2024-03-23T13:08:44;97813.22;;;7.52;72.02
37858;BME280;23695;55.868;37.472;2024-03-23T13:11:10;97809.22;;;7.46;72.68
37858;BME280;23695;55.868;37.472;2024-03-23T13:13:39;97811.09;;;7.89;71.21
37858;BME280;23695;55.868;37.472;2024-03-23T13:16:05;97812.72;;;8.10;70.39
37858;BME280;23695;55.868;37.472;2024-03-23T13:18:32;97810.56;;;8.00;71.00
37858;BME280;23695;55.868;37.472;2024-03-23T13:20:58;97810.63;;;8.03;71.31
37858;BME280;23695;55.868;37.472;2024-03-23T13:23:24;97810.28;;;8.20;70.72
37858;BME280;23695;55.868;37.472;2024-03-23T13:25:54;97817.94;;;8.50;69.98
37858;BME280;23695;55.868;37.472;2024-03-23T13:28:24;97809.06;;;8.49;69.52
37858;BME280;23695;55.868;37.472;2024-03-23T13:30:53;97806.38;;;8.49;69.12
37858;BME280;23695;55.868;37.472;2024-03-23T13:33:20;97803.09;;;8.24;69.88
37858;BME280;23695;55.868;37.472;2024-03-23T13:35:53;97804.56;;;8.38;69.58
37858;BME280;23695;55.868;37.472;2024-03-23T13:38:19;97798.56;;;8.29;69.49
37858;BME280;23695;55.868;37.472;2024-03-23T13:40:52;97795.16;;;7.97;70.49
37858;BME280;23695;55.868;37.472;2024-03-23T13:43:18;97800.84;;;8.27;69.56
37858;BME280;23695;55.868;37.472;2024-03-23T13:45:46;97802.75;;;8.26;69.62
37858;BME280;23695;55.868;37.472;2024-03-23T13:48:12;97811.25;;;7.81;70.60
37858;BME280;23695;55.868;37.472;2024-03-23T13:50:38;97803.31;;;7.41;72.68
37858;BME280;23695;55.868;37.472;2024-03-23T13:53:04;97808.81;;;7.16;73.05
37858;BME280;23695;55.868;37.472;2024-03-23T13:55:30;97801.22;;;7.06;73.51
37858;BME280;23695;55.868;37.472;2024-03-23T13:57:55;97798.25;;;7.23;73.60